Terminal Aerodrome Forecast
Issued by NWS

Home | Current Version | Previous Version | Text Only | Print | Product List | Glossary Off
Versions: 1 2 3 4 5 6 7 8 9 10 11 12 13 14 15 16
000 FTUS43 KABR 132320 TAFATY TAF KATY 132320Z 1400/1424 18018G25KT P6SM FEW080 BKN150 FM140500 17011KT P6SM VCTS BKN070CB FM140600 17012KT P6SM VCSH BKN070 FM140900 17009KT P6SM BKN035 FM141100 17009KT P6SM BKN021 FM141900 21006KT P6SM SCT029 BKN035=

USA.gov is the U.S. government's official web portal to all federal, state and local government web resources and services.